Kezdőlap
METAR-TAF:

METAR-TAF

Repülőterek :

Csungking, Kína

földrajzi szélesség: 29-31N, földrajzi hosszúság: 106-29E, magasság: 351 m

Jelenlegi meteorológiai megfigyelések

A jelentés 40 perccel ezelõtt készült, 19:00 UTC
Észak-északkeleti szél 4 kt
Hőmérséklet 18°C
Páratartalom 94%
Légköri nyomás 1014 hPa
Látótávolság 10 km, vagy több
felhőtlen 1500 m magasságban, és nincs gomolyfelhõ

METAR: ZUCK 271900Z 02002MPS CAVOK 18/17 Q1014 NOSIG

Idő: 03:40 (19:40 UTC)

Előrejelzés

A jelentés 4 órával és 38 perccel ezelõtt készült, 15:02 UTC
Az előrejelzés 27-én 18 óra UTC és 28-én 18 óra UTC között érvényes
Észak-északkeleti szél 6 kt
Látótávolság: 6000 m
Szórványos felhőzet 5000 lábon

TAF: ZUCK 271502Z 2718/2818 03003MPS 6000 SCT050 TX27/2808Z TN18/2721Z

Meteorológiai megfigyelések és előrejelzések több, mint 4000 repülőtéren (METAR és TAF jelentéseket).

A térképen piros és sárga pontok jelzik az elérhető meteorológiai állomásokat.

Mozgassa az egeret a pont fölött, hogy megjelenjen az állomás neve.

Azután kattintson az időjárási megfigyelések és előrejelzések megtekintéséhez.

A térkép megváltoztatása: kattintson a fekete keresztel jelölt zöld gombra ráközelítéshez, a vonallal jelölt zöld gombra távolításhoz, vagy a zöld nyilakra a szomszédos térképek eléréséhez.


METAR-TAF: